Time;durP1;ratioP1;P1;durP2;ratioP2;P2;SDS_P1;SDS_P2;PMS_P1;PMS_P2;Temp;Humidity;BMP_temperature;BMP_pressure;BME280_temperature;BME280_humidity;BME280_pressure;Samples;Min_cycle;Max_cycle;Signal;HPM_P1;HPM_P2
2022/08/02 00:00:52;;;;;;;1.13;0.40;;;18.20;99.90;;;;;;5073938;28;20920;-82
2022/08/02 00:03:18;;;;;;;0.70;0.53;;;18.20;99.90;;;;;;5074341;28;20460;-82
2022/08/02 00:05:45;;;;;;;1.77;0.50;;;18.20;99.90;;;;;;5074010;28;20811;-82
2022/08/02 00:08:12;;;;;;;0.50;0.50;;;18.20;99.90;;;;;;5074260;28;20456;-83
2022/08/02 00:10:38;;;;;;;1.17;0.60;;;18.10;99.90;;;;;;5074161;28;20476;-82
2022/08/02 00:13:07;;;;;;;1.23;0.70;;;18.10;99.90;;;;;;5074158;28;20441;-82
2022/08/02 00:15:33;;;;;;;0.63;0.60;;;18.10;99.90;;;;;;5074175;28;20452;-83
2022/08/02 00:18:00;;;;;;;0.40;0.40;;;18.10;99.90;;;;;;5074112;28;20445;-83
2022/08/02 00:20:27;;;;;;;0.70;0.60;;;18.10;99.90;;;;;;5073987;28;20469;-82
2022/08/02 00:22:53;;;;;;;0.50;0.50;;;18.10;99.90;;;;;;5073693;28;20481;-82
2022/08/02 00:25:20;;;;;;;0.60;0.50;;;18.10;99.90;;;;;;5073933;28;20460;-82
2022/08/02 00:27:47;;;;;;;0.57;0.57;;;18.00;99.90;;;;;;5073620;28;20888;-83
2022/08/02 00:30:15;;;;;;;0.60;0.43;;;18.00;99.90;;;;;;5073832;28;20547;-82
2022/08/02 00:32:42;;;;;;;0.40;0.40;;;17.90;99.90;;;;;;5073841;28;20452;-83
2022/08/02 00:35:09;;;;;;;0.50;0.50;;;18.00;99.90;;;;;;5073802;28;20453;-82
2022/08/02 00:37:39;;;;;;;1.33;0.70;;;18.00;99.90;;;;;;5073743;28;20456;-83
2022/08/02 00:40:07;;;;;;;0.67;0.67;;;17.90;99.90;;;;;;5073375;28;20453;-83
2022/08/02 00:42:34;;;;;;;0.40;0.40;;;17.90;99.90;;;;;;5073239;28;20492;-80
2022/08/02 00:45:00;;;;;;;0.43;0.40;;;17.80;99.90;;;;;;5073668;28;20463;-81
2022/08/02 00:47:28;;;;;;;0.60;0.57;;;17.80;99.90;;;;;;5073411;28;20437;-81
2022/08/02 00:49:55;;;;;;;0.80;0.40;;;17.80;99.90;;;;;;5073577;28;20457;-80
2022/08/02 00:52:22;;;;;;;0.50;0.50;;;17.80;99.90;;;;;;5073532;28;20809;-80
2022/08/02 00:54:49;;;;;;;0.67;0.67;;;17.80;99.90;;;;;;5073589;28;20449;-81
2022/08/02 00:57:16;;;;;;;0.70;0.30;;;17.80;99.90;;;;;;5073489;28;20452;-81
2022/08/02 00:59:43;;;;;;;0.77;0.60;;;17.80;99.90;;;;;;5073437;28;20465;-80
2022/08/02 01:02:09;;;;;;;0.43;0.43;;;17.70;99.90;;;;;;5073080;28;20491;-81
2022/08/02 01:04:38;;;;;;;0.60;0.60;;;17.60;99.90;;;;;;5073461;28;20471;-80
2022/08/02 01:07:05;;;;;;;0.60;0.60;;;17.60;99.90;;;;;;5073380;28;20441;-83
2022/08/02 01:09:31;;;;;;;1.53;0.57;;;17.60;99.90;;;;;;5073279;28;20525;-83
2022/08/02 01:11:58;;;;;;;0.37;0.37;;;17.50;99.90;;;;;;5073341;28;20449;-82
2022/08/02 01:14:25;;;;;;;0.40;0.30;;;17.50;99.90;;;;;;5073088;28;20441;-82
2022/08/02 01:16:59;;;;;;;0.70;0.50;;;17.60;99.90;;;;;;5072978;28;20797;-82
2022/08/02 01:19:34;;;;;;;0.90;0.40;;;17.50;99.90;;;;;;5073248;28;20469;-83
2022/08/02 01:22:21;;;;;;;0.30;0.30;;;17.50;99.90;;;;;;5073219;28;20465;-83
2022/08/02 01:25:13;;;;;;;0.63;0.43;;;17.30;99.90;;;;;;5073306;28;20449;-83
2022/08/02 01:27:53;;;;;;;0.30;0.30;;;17.20;99.90;;;;;;5073273;28;20433;-83
2022/08/02 01:30:22;;;;;;;0.63;0.43;;;17.20;99.90;;;;;;5072856;28;20464;-82
2022/08/02 01:32:53;;;;;;;0.40;0.40;;;17.30;99.90;;;;;;5073179;28;20449;-82
2022/08/02 01:35:24;;;;;;;0.67;0.40;;;17.30;99.90;;;;;;5074019;28;20425;-83
2022/08/02 01:37:56;;;;;;;0.40;0.40;;;17.30;99.90;;;;;;5077292;28;20440;-83
2022/08/02 01:40:28;;;;;;;1.53;0.40;;;17.30;99.90;;;;;;5076700;28;20457;-82
2022/08/02 01:42:56;;;;;;;0.97;0.50;;;17.30;99.90;;;;;;5077043;28;20469;-82
2022/08/02 01:45:26;;;;;;;0.60;0.47;;;17.20;99.90;;;;;;5077041;28;20452;-83
2022/08/02 01:47:54;;;;;;;1.67;0.57;;;17.10;99.90;;;;;;5077001;28;20437;-83
2022/08/02 01:50:26;;;;;;;1.07;0.50;;;17.10;99.90;;;;;;5076998;28;20835;-82
2022/08/02 01:52:56;;;;;;;0.70;0.50;;;17.10;99.90;;;;;;5076596;28;20928;-83
2022/08/02 01:55:25;;;;;;;1.23;0.60;;;17.10;99.90;;;;;;5076842;28;20426;-83
2022/08/02 01:57:56;;;;;;;0.63;0.50;;;17.10;99.90;;;;;;5076527;28;20437;-82
2022/08/02 02:00:27;;;;;;;0.40;0.40;;;17.10;99.90;;;;;;5076678;28;20465;-82
2022/08/02 02:02:56;;;;;;;0.30;0.30;;;17.10;99.90;;;;;;5076630;28;20479;-83
2022/08/02 02:05:25;;;;;;;0.40;0.40;;;17.10;99.90;;;;;;5076324;28;20445;-82
2022/08/02 02:07:57;;;;;;;0.50;0.43;;;17.10;99.90;;;;;;5076623;28;20468;-84
2022/08/02 02:10:26;;;;;;;0.90;0.90;;;17.10;99.90;;;;;;5076527;28;20473;-84
2022/08/02 02:12:54;;;;;;;0.43;0.40;;;17.00;99.90;;;;;;5076469;28;20456;-83
2022/08/02 02:15:24;;;;;;;0.30;0.30;;;17.10;99.90;;;;;;5076474;28;20453;-79
2022/08/02 02:17:54;;;;;;;0.50;0.40;;;17.00;99.90;;;;;;5076742;28;20445;-79
2022/08/02 02:20:21;;;;;;;0.47;0.43;;;17.00;99.90;;;;;;5076175;28;20481;-79
2022/08/02 02:22:49;;;;;;;1.00;0.40;;;17.10;99.90;;;;;;5076281;28;20484;-79
2022/08/02 02:25:18;;;;;;;0.93;0.40;;;17.20;99.90;;;;;;5076257;28;20448;-79
2022/08/02 02:27:51;;;;;;;1.00;0.63;;;17.20;99.90;;;;;;5076237;28;20445;-79
2022/08/02 02:30:19;;;;;;;0.60;0.60;;;17.20;99.90;;;;;;5075898;28;20971;-79
2022/08/02 02:32:49;;;;;;;1.53;0.40;;;17.30;99.90;;;;;;5076154;28;20448;-79
2022/08/02 02:35:17;;;;;;;0.80;0.50;;;17.30;99.90;;;;;;5076135;28;20429;-79
2022/08/02 02:37:45;;;;;;;0.60;0.40;;;17.30;99.90;;;;;;5076085;28;20461;-79
2022/08/02 02:40:14;;;;;;;0.60;0.60;;;17.20;99.90;;;;;;5075676;28;20543;-79
2022/08/02 02:42:42;;;;;;;0.47;0.47;;;17.20;99.90;;;;;;5075906;28;20480;-79
2022/08/02 02:45:10;;;;;;;0.60;0.40;;;17.20;99.90;;;;;;5075734;28;20455;-79
2022/08/02 02:47:38;;;;;;;0.63;0.63;;;17.20;99.90;;;;;;5075496;28;20452;-79
2022/08/02 02:50:08;;;;;;;0.40;0.40;;;17.20;99.90;;;;;;5075774;28;20473;-79
2022/08/02 02:52:36;;;;;;;1.07;0.50;;;17.10;99.90;;;;;;5075806;28;20449;-79
2022/08/02 02:55:04;;;;;;;0.50;0.50;;;17.20;99.90;;;;;;5076578;28;20437;-79
2022/08/02 02:57:31;;;;;;;0.40;0.40;;;17.20;99.90;;;;;;5075728;28;20441;-79
2022/08/02 02:59:58;;;;;;;1.33;0.70;;;17.10;99.90;;;;;;5075296;28;20975;-79
2022/08/02 03:02:25;;;;;;;1.47;0.50;;;17.20;99.90;;;;;;5075552;28;20488;-79
2022/08/02 03:04:54;;;;;;;0.50;0.40;;;17.20;99.90;;;;;;5075551;28;20452;-79
2022/08/02 03:07:23;;;;;;;0.60;0.60;;;17.10;99.90;;;;;;5075528;28;20448;-79
2022/08/02 03:09:49;;;;;;;0.50;0.43;;;17.10;99.90;;;;;;5075119;28;20469;-79
2022/08/02 03:12:17;;;;;;;0.80;0.50;;;17.10;99.90;;;;;;5075451;28;20456;-79
2022/08/02 03:14:44;;;;;;;0.47;0.47;;;17.10;99.90;;;;;;5075406;28;20440;-79
2022/08/02 03:17:10;;;;;;;1.00;0.40;;;17.10;99.90;;;;;;5075880;28;20448;-79
2022/08/02 03:19:37;;;;;;;0.40;0.40;;;17.10;99.90;;;;;;5075213;28;20465;-79
2022/08/02 03:22:04;;;;;;;2.00;0.57;;;17.10;99.90;;;;;;5074824;28;20995;-79
2022/08/02 03:24:32;;;;;;;0.97;0.97;;;17.10;99.90;;;;;;5075175;28;20441;-79
2022/08/02 03:26:59;;;;;;;0.40;0.30;;;17.10;99.90;;;;;;5074834;28;20440;-79
2022/08/02 03:29:26;;;;;;;0.73;0.30;;;17.10;99.90;;;;;;5074709;28;20469;-79
2022/08/02 03:31:53;;;;;;;0.47;0.47;;;17.10;99.90;;;;;;5075036;28;20444;-79
2022/08/02 03:34:21;;;;;;;0.80;0.47;;;17.00;99.90;;;;;;5074983;28;20519;-79
2022/08/02 03:36:51;;;;;;;0.57;0.57;;;17.00;99.90;;;;;;5074932;28;20452;-79
2022/08/02 03:39:19;;;;;;;0.40;0.40;;;17.00;99.90;;;;;;5074879;28;20429;-79
2022/08/02 03:41:49;;;;;;;0.60;0.60;;;17.00;99.90;;;;;;5074286;28;20559;-79
2022/08/02 03:44:16;;;;;;;0.60;0.40;;;17.00;99.90;;;;;;5074784;28;20449;-79
2022/08/02 03:46:44;;;;;;;0.50;0.40;;;17.00;99.90;;;;;;5074776;28;20457;-79
2022/08/02 03:49:11;;;;;;;0.53;0.53;;;17.00;99.90;;;;;;5074322;28;20445;-79
2022/08/02 03:51:38;;;;;;;0.50;0.40;;;16.90;99.90;;;;;;5074658;28;20857;-79
2022/08/02 03:54:06;;;;;;;0.50;0.50;;;17.00;99.90;;;;;;5075269;28;20798;-79
2022/08/02 03:56:33;;;;;;;0.30;0.30;;;17.00;99.90;;;;;;5074215;28;20447;-79
2022/08/02 03:59:13;;;;;;;0.67;0.50;;;17.00;99.90;;;;;;5073898;28;20453;-79
2022/08/02 04:01:40;;;;;;;0.80;0.50;;;17.00;99.90;;;;;;5074493;28;20432;-79
2022/08/02 04:04:07;;;;;;;0.60;0.60;;;16.90;99.90;;;;;;5074329;28;20496;-79
2022/08/02 04:06:34;;;;;;;0.50;0.40;;;16.90;99.90;;;;;;5074349;28;20452;-79
2022/08/02 04:09:01;;;;;;;0.70;0.70;;;16.90;99.90;;;;;;5074205;28;20800;-79
2022/08/02 04:11:29;;;;;;;1.50;0.50;;;16.90;99.90;;;;;;5074236;28;20633;-79
2022/08/02 04:13:57;;;;;;;0.93;0.40;;;16.90;99.90;;;;;;5073883;28;20864;-79
2022/08/02 04:16:31;;;;;;;3.30;0.60;;;16.90;99.90;;;;;;5074131;28;20464;-79
2022/08/02 04:19:02;;;;;;;1.33;0.53;;;17.00;99.90;;;;;;5074210;28;20459;-79
2022/08/02 04:21:32;;;;;;;0.80;0.50;;;17.00;99.90;;;;;;5073797;28;20951;-79
2022/08/02 04:24:00;;;;;;;8.33;0.70;;;17.00;99.90;;;;;;5073982;28;20472;-79
2022/08/02 04:26:27;;;;;;;0.60;0.53;;;17.00;99.90;;;;;;5073966;28;20468;-79
2022/08/02 04:28:54;;;;;;;0.40;0.40;;;17.10;99.90;;;;;;5073623;28;20978;-79
2022/08/02 04:31:22;;;;;;;0.50;0.40;;;17.10;99.90;;;;;;5073817;28;20476;-79
2022/08/02 04:33:50;;;;;;;0.63;0.63;;;17.00;99.90;;;;;;5073877;28;20441;-79
2022/08/02 04:36:17;;;;;;;0.50;0.50;;;17.10;99.90;;;;;;5073784;28;20449;-79
2022/08/02 04:38:44;;;;;;;0.40;0.40;;;17.10;99.90;;;;;;5073780;28;20444;-79
2022/08/02 04:41:11;;;;;;;0.40;0.40;;;17.10;99.90;;;;;;5073190;28;20967;-79
2022/08/02 04:43:37;;;;;;;0.90;0.50;;;17.20;99.90;;;;;;5073593;28;20488;-79
2022/08/02 04:46:04;;;;;;;0.40;0.30;;;17.20;99.90;;;;;;5073683;28;20457;-79
2022/08/02 04:48:31;;;;;;;0.60;0.40;;;17.20;99.90;;;;;;5073704;28;20428;-80
2022/08/02 04:50:59;;;;;;;0.60;0.50;;;17.30;99.90;;;;;;5073555;28;20475;-79
2022/08/02 04:53:26;;;;;;;0.40;0.40;;;17.30;99.90;;;;;;5073260;28;20445;-79
2022/08/02 04:55:54;;;;;;;0.60;0.50;;;17.30;99.90;;;;;;5073561;28;20452;-79
2022/08/02 04:58:20;;;;;;;0.87;0.87;;;17.30;99.90;;;;;;5073505;28;20464;-79
2022/08/02 05:00:47;;;;;;;0.50;0.40;;;17.40;99.90;;;;;;5073427;28;20466;-79
2022/08/02 05:03:14;;;;;;;0.50;0.50;;;17.40;99.90;;;;;;5073393;28;20472;-79
2022/08/02 05:05:41;;;;;;;0.40;0.30;;;17.50;99.90;;;;;;5073186;28;20475;-79
2022/08/02 05:08:09;;;;;;;1.40;0.60;;;17.50;99.90;;;;;;5073417;28;20444;-79
2022/08/02 05:10:36;;;;;;;1.00;0.80;;;17.50;99.90;;;;;;5072134;28;20829;-79
2022/08/02 05:13:04;;;;;;;0.40;0.40;;;17.60;99.90;;;;;;5073060;28;20441;-79
2022/08/02 05:15:31;;;;;;;0.40;0.40;;;17.70;99.90;;;;;;5072994;28;20790;-79
2022/08/02 05:17:58;;;;;;;0.40;0.40;;;17.80;99.90;;;;;;5073309;28;20452;-79
2022/08/02 05:20:24;;;;;;;0.50;0.50;;;17.90;99.90;;;;;;5072925;28;20972;-79
2022/08/02 05:22:51;;;;;;;0.80;0.80;;;18.00;99.90;;;;;;5073193;28;20487;-80
2022/08/02 05:25:19;;;;;;;1.37;0.57;;;18.00;99.90;;;;;;5072933;28;20960;-79
2022/08/02 05:27:46;;;;;;;0.40;0.40;;;18.10;99.90;;;;;;5072905;28;20482;-80
2022/08/02 05:30:13;;;;;;;0.40;0.40;;;18.10;99.90;;;;;;5073050;28;20479;-80
2022/08/02 05:32:47;;;;;;;0.80;0.60;;;18.20;99.90;;;;;;5073193;28;20818;-79
2022/08/02 05:35:17;;;;;;;0.93;0.70;;;18.20;99.90;;;;;;5073191;28;20440;-79
2022/08/02 05:37:44;;;;;;;0.57;0.57;;;18.30;99.90;;;;;;5073226;28;20459;-80
2022/08/02 05:40:11;;;;;;;1.60;0.77;;;18.30;99.90;;;;;;5073034;28;20472;-80
2022/08/02 05:42:39;;;;;;;4.50;0.70;;;18.30;99.90;;;;;;5072565;28;20480;-79
2022/08/02 05:45:07;;;;;;;0.40;0.40;;;18.30;99.90;;;;;;5073046;28;20455;-79
2022/08/02 05:47:34;;;;;;;0.50;0.50;;;18.30;99.90;;;;;;5073049;28;20574;-79
2022/08/02 05:50:01;;;;;;;1.93;0.60;;;18.30;99.90;;;;;;5072954;28;20547;-79
2022/08/02 05:52:42;;;;;;;0.40;0.40;;;18.30;99.90;;;;;;5073026;28;20449;-79
2022/08/02 05:55:13;;;;;;;1.77;0.60;;;18.30;99.90;;;;;;5073035;28;20432;-79
2022/08/02 05:57:53;;;;;;;1.00;0.83;;;18.30;99.90;;;;;;5072655;28;20502;-79
2022/08/02 06:00:21;;;;;;;1.20;0.70;;;18.20;99.90;;;;;;5072934;28;20469;-79
2022/08/02 06:03:02;;;;;;;0.83;0.50;;;18.20;99.90;;;;;;5072821;28;20924;-80
2022/08/02 06:05:34;;;;;;;0.63;0.50;;;18.30;99.90;;;;;;5072596;28;20436;-80
2022/08/02 06:08:07;;;;;;;0.70;0.50;;;18.30;99.90;;;;;;5072621;28;20429;-80
2022/08/02 06:10:36;;;;;;;0.60;0.60;;;18.40;99.90;;;;;;5072828;28;20469;-79
2022/08/02 06:13:09;;;;;;;0.77;0.50;;;18.60;99.90;;;;;;5072793;28;20441;-80
2022/08/02 06:15:36;;;;;;;2.40;0.60;;;18.70;99.90;;;;;;5072832;28;20429;-79
2022/08/02 06:18:03;;;;;;;0.63;0.50;;;18.80;99.90;;;;;;5072456;28;20932;-79
2022/08/02 06:20:34;;;;;;;1.17;0.53;;;19.00;99.90;;;;;;5072688;28;20464;-80
2022/08/02 06:23:03;;;;;;;0.40;0.40;;;19.20;99.90;;;;;;5075630;28;20460;-80
2022/08/02 06:25:30;;;;;;;4.13;0.87;;;19.40;99.90;;;;;;5076027;28;20932;-79
2022/08/02 06:27:58;;;;;;;0.80;0.60;;;19.40;99.90;;;;;;5076300;28;20565;-79
2022/08/02 06:30:28;;;;;;;0.90;0.90;;;19.50;99.90;;;;;;5076172;28;20510;-79
2022/08/02 06:32:55;;;;;;;0.60;0.43;;;19.60;99.90;;;;;;5076186;28;20457;-79
2022/08/02 06:35:25;;;;;;;0.90;0.90;;;19.70;99.90;;;;;;5076138;28;20562;-79
2022/08/02 06:37:57;;;;;;;1.23;0.70;;;19.90;99.90;;;;;;5076104;28;20452;-79
2022/08/02 06:40:28;;;;;;;0.80;0.80;;;19.90;99.90;;;;;;5075492;28;20468;-79
2022/08/02 06:43:06;;;;;;;0.83;0.70;;;20.00;99.90;;;;;;5075943;28;20428;-79
2022/08/02 06:45:34;;;;;;;0.60;0.50;;;20.00;99.90;;;;;;5075729;28;20410;-79
2022/08/02 06:48:02;;;;;;;0.97;0.60;;;20.20;99.90;;;;;;5075627;28;20445;-79
2022/08/02 06:50:30;;;;;;;0.90;0.70;;;20.30;99.90;;;;;;5075817;28;20464;-79
2022/08/02 06:52:57;;;;;;;0.70;0.50;;;20.40;99.90;;;;;;5075845;28;20454;-79
2022/08/02 06:55:23;;;;;;;0.80;0.60;;;20.50;99.90;;;;;;5075794;28;20448;-79
2022/08/02 06:57:50;;;;;;;1.47;1.20;;;20.60;99.90;;;;;;5075765;28;20456;-79
2022/08/02 07:00:17;;;;;;;1.33;0.80;;;20.70;99.90;;;;;;5075676;28;20538;-79
2022/08/02 07:02:45;;;;;;;0.93;0.67;;;20.80;99.90;;;;;;5075665;28;20452;-79
2022/08/02 07:05:12;;;;;;;0.80;0.80;;;20.80;99.90;;;;;;5075536;28;20484;-79
2022/08/02 07:07:39;;;;;;;0.90;0.80;;;20.90;99.90;;;;;;5075576;28;20455;-79
2022/08/02 07:10:06;;;;;;;1.13;0.87;;;21.10;99.90;;;;;;5075137;28;20464;-79
2022/08/02 07:12:33;;;;;;;0.63;0.60;;;21.20;99.90;;;;;;5075430;28;20449;-79
2022/08/02 07:15:02;;;;;;;1.20;0.93;;;21.20;99.90;;;;;;5075452;28;20424;-79
2022/08/02 07:17:29;;;;;;;3.70;0.70;;;21.30;99.90;;;;;;5075343;28;20425;-79
2022/08/02 07:19:57;;;;;;;1.80;0.80;;;21.40;99.90;;;;;;5074945;28;20467;-79
2022/08/02 07:22:25;;;;;;;1.03;0.70;;;21.50;99.90;;;;;;5075020;28;20927;-79
2022/08/02 07:24:53;;;;;;;0.80;0.80;;;21.70;99.90;;;;;;5075701;28;20501;-79
2022/08/02 07:27:20;;;;;;;1.77;0.90;;;21.90;99.90;;;;;;5074836;28;20825;-79
2022/08/02 07:29:47;;;;;;;0.70;0.70;;;22.10;99.90;;;;;;5075083;28;20832;-79
2022/08/02 07:32:14;;;;;;;1.53;0.60;;;22.30;99.90;;;;;;5074613;28;20448;-79
2022/08/02 07:34:41;;;;;;;0.70;0.70;;;22.30;99.90;;;;;;5074268;28;20444;-79
2022/08/02 07:37:09;;;;;;;1.03;0.70;;;22.40;99.90;;;;;;5074782;28;20488;-79
2022/08/02 07:39:36;;;;;;;1.10;0.80;;;22.50;99.90;;;;;;5074452;28;20475;-79
2022/08/02 07:42:02;;;;;;;1.07;0.70;;;22.70;99.90;;;;;;5074507;28;20230;-79
2022/08/02 07:44:33;;;;;;;1.17;1.00;;;22.80;99.90;;;;;;5074750;28;20484;-79
2022/08/02 07:47:00;;;;;;;5.33;1.20;;;23.00;99.90;;;;;;5074862;28;20186;-79
2022/08/02 07:49:27;;;;;;;1.57;1.10;;;23.10;99.90;;;;;;5074670;28;20229;-79
2022/08/02 07:51:53;;;;;;;0.70;0.70;;;23.10;99.90;;;;;;5074688;28;20209;-79
2022/08/02 07:54:21;;;;;;;2.03;1.83;;;23.10;99.90;;;;;;5074627;28;20204;-79
2022/08/02 07:56:48;;;;;;;0.83;0.77;;;23.30;99.90;;;;;;5074588;28;20205;-79
2022/08/02 07:59:15;;;;;;;1.73;1.30;;;23.30;99.90;;;;;;5074440;28;20202;-79
2022/08/02 08:01:42;;;;;;;1.70;1.10;;;23.50;99.90;;;;;;5074512;28;20209;-79
2022/08/02 08:04:08;;;;;;;1.52;1.08;;;23.70;99.90;;;;;;5074378;28;20226;-79
2022/08/02 08:06:35;;;;;;;0.80;0.75;;;23.80;99.90;;;;;;5074346;28;20209;-79
2022/08/02 08:09:02;;;;;;;0.95;0.80;;;23.80;99.90;;;;;;5074275;28;20565;-79
2022/08/02 08:11:30;;;;;;;1.42;1.27;;;23.80;99.90;;;;;;5074316;28;20205;-79
2022/08/02 08:13:57;;;;;;;1.20;1.10;;;23.80;99.90;;;;;;5074254;28;20209;-77
2022/08/02 08:16:25;;;;;;;1.48;1.38;;;23.90;99.90;;;;;;5074207;28;20224;-77
2022/08/02 08:18:51;;;;;;;0.80;0.80;;;23.90;99.90;;;;;;5074131;28;20198;-77
2022/08/02 08:21:18;;;;;;;1.20;1.10;;;24.00;99.90;;;;;;5073834;28;20214;-77
2022/08/02 08:23:45;;;;;;;1.05;1.02;;;24.10;99.90;;;;;;5073987;28;20225;-77
2022/08/02 08:26:12;;;;;;;1.55;1.15;;;24.20;99.90;;;;;;5074032;28;20206;-77
2022/08/02 08:28:40;;;;;;;1.65;1.52;;;24.10;99.90;;;;;;5073969;28;20206;-77
2022/08/02 08:31:06;;;;;;;2.30;1.17;;;24.10;99.90;;;;;;5073571;28;20230;-78
2022/08/02 08:33:33;;;;;;;1.85;1.08;;;24.20;99.90;;;;;;5073581;28;20206;-77
2022/08/02 08:36:00;;;;;;;0.95;0.93;;;24.20;99.90;;;;;;5073536;28;20696;-77
2022/08/02 08:38:27;;;;;;;1.10;1.00;;;24.30;99.90;;;;;;5073903;28;20214;-77
2022/08/02 08:40:54;;;;;;;1.45;1.23;;;24.30;99.90;;;;;;5073446;28;20238;-77
2022/08/02 08:43:20;;;;;;;1.35;1.25;;;24.50;99.90;;;;;;5073654;28;20205;-77
2022/08/02 08:45:50;;;;;;;1.73;1.05;;;24.50;99.90;;;;;;5073309;28;20205;-77
2022/08/02 08:48:18;;;;;;;0.93;0.80;;;24.60;99.90;;;;;;5073722;28;20409;-77
2022/08/02 08:50:49;;;;;;;1.33;1.08;;;24.70;99.90;;;;;;5073630;28;20222;-77
2022/08/02 08:53:17;;;;;;;0.80;0.80;;;24.80;99.90;;;;;;5073720;28;20186;-82
2022/08/02 08:55:45;;;;;;;1.35;0.90;;;24.70;99.90;;;;;;5073557;28;20241;-81
2022/08/02 08:58:12;;;;;;;1.15;1.08;;;24.80;99.90;;;;;;5073590;28;20205;-81
2022/08/02 09:00:40;;;;;;;1.13;1.08;;;24.90;99.90;;;;;;5073539;28;20271;-81
2022/08/02 09:03:08;;;;;;;1.38;0.75;;;24.70;99.90;;;;;;5073553;28;20202;-81
2022/08/02 09:05:36;;;;;;;1.35;1.25;;;24.70;99.90;;;;;;5073404;28;20225;-81
2022/08/02 09:08:04;;;;;;;1.42;1.27;;;24.70;99.90;;;;;;5073528;28;20587;-81
2022/08/02 09:10:39;;;;;;;1.00;1.00;;;24.70;99.90;;;;;;5073359;28;20225;-81
2022/08/02 09:13:12;;;;;;;1.02;1.02;;;24.90;99.90;;;;;;5073396;28;20206;-81
2022/08/02 09:15:39;;;;;;;1.10;1.00;;;24.90;99.90;;;;;;5073409;28;20210;-81
2022/08/02 09:18:08;;;;;;;2.53;1.40;;;24.90;99.90;;;;;;5073366;28;20206;-81
2022/08/02 09:20:51;;;;;;;1.50;1.02;;;25.00;99.90;;;;;;5073262;28;20304;-81
2022/08/02 09:23:20;;;;;;;1.08;0.80;;;25.20;99.90;;;;;;5073361;28;20186;-81
2022/08/02 09:25:56;;;;;;;0.82;0.80;;;25.20;99.90;;;;;;5072908;28;20760;-81
2022/08/02 09:28:26;;;;;;;2.08;1.20;;;25.30;99.90;;;;;;5073001;28;20664;-81
2022/08/02 09:30:56;;;;;;;1.10;0.88;;;25.50;99.90;;;;;;5073168;28;20234;-81
2022/08/02 09:33:27;;;;;;;1.50;0.80;;;25.60;99.90;;;;;;5073249;28;20198;-81
2022/08/02 09:36:00;;;;;;;1.13;0.95;;;25.70;99.90;;;;;;5072973;28;20633;-81
2022/08/02 09:38:28;;;;;;;1.00;0.90;;;25.80;99.90;;;;;;5073207;28;20182;-81
2022/08/02 09:40:55;;;;;;;1.38;1.00;;;25.80;99.90;;;;;;5072619;28;20245;-82
2022/08/02 09:43:22;;;;;;;0.90;0.82;;;26.00;99.90;;;;;;5072872;28;20642;-81
2022/08/02 09:45:48;;;;;;;1.67;1.00;;;26.10;99.90;;;;;;5073016;28;20222;-82
2022/08/02 09:48:15;;;;;;;1.30;1.20;;;26.20;99.90;;;;;;5073300;28;20237;-82
2022/08/02 09:50:45;;;;;;;1.67;1.00;;;26.30;99.90;;;;;;5072963;28;20229;-82
2022/08/02 09:53:13;;;;;;;2.15;1.42;;;26.30;99.90;;;;;;5073031;28;20274;-82
2022/08/02 09:55:41;;;;;;;1.42;1.30;;;26.50;99.90;;;;;;5072896;28;20198;-81
2022/08/02 09:58:18;;;;;;;1.33;0.90;;;26.60;99.90;;;;;;5076612;28;20205;-82
2022/08/02 10:00:54;;;;;;;2.35;1.73;;;26.70;99.90;;;;;;5076759;28;20229;-82
2022/08/02 10:03:22;;;;;;;1.15;0.80;;;26.80;99.90;;;;;;5076743;28;20197;-81
2022/08/02 10:05:52;;;;;;;1.60;1.50;;;26.90;99.90;;;;;;5076600;28;20221;-81
2022/08/02 10:08:19;;;;;;;1.58;1.15;;;26.90;99.90;;;;;;5076691;28;20190;-81
2022/08/02 10:10:47;;;;;;;1.10;1.00;;;27.00;99.90;;;;;;5076543;28;20225;-81
2022/08/02 10:13:14;;;;;;;1.08;1.05;;;27.00;99.90;;;;;;5076226;28;20666;-81
2022/08/02 10:15:41;;;;;;;1.20;1.10;;;27.20;99.90;;;;;;5076489;28;20205;-81
2022/08/02 10:18:08;;;;;;;1.50;0.88;;;27.40;99.90;;;;;;5076533;28;20549;-79
2022/08/02 10:20:41;;;;;;;0.80;0.80;;;27.60;99.90;;;;;;5076413;28;20226;-80
2022/08/02 10:23:12;;;;;;;0.80;0.80;;;27.60;99.90;;;;;;5076143;28;20182;-80
2022/08/02 10:25:39;;;;;;;1.63;1.50;;;27.50;99.90;;;;;;5076339;28;20221;-80
2022/08/02 10:28:07;;;;;;;1.00;0.90;;;27.60;99.90;;;;;;5076317;28;20213;-79
2022/08/02 10:30:36;;;;;;;1.60;0.98;;;27.60;99.90;;;;;;5075888;28;20253;-79
2022/08/02 10:33:05;;;;;;;1.05;1.02;;;27.50;99.90;;;;;;5075959;28;20290;-79
2022/08/02 10:35:35;;;;;;;1.13;1.13;;;27.40;99.90;;;;;;5075875;28;20201;-79
2022/08/02 10:38:08;;;;;;;0.82;0.80;;;27.40;99.90;;;;;;5076164;28;20193;-79
2022/08/02 10:40:51;;;;;;;1.13;0.90;;;27.40;99.90;;;;;;5075824;28;20243;-79
2022/08/02 10:43:40;;;;;;;1.15;1.08;;;27.60;99.90;;;;;;5076099;28;20190;-79
2022/08/02 10:46:29;;;;;;;1.00;0.90;;;27.60;99.90;;;;;;5075681;28;20202;-79
2022/08/02 10:49:08;;;;;;;1.13;1.02;;;27.60;99.90;;;;;;5076000;28;20186;-79
2022/08/02 10:51:58;;;;;;;0.80;0.80;;;27.70;99.90;;;;;;5075978;28;20273;-79
2022/08/02 10:54:26;;;;;;;0.80;0.80;;;27.80;99.90;;;;;;5075889;28;20199;-79
2022/08/02 10:56:56;;;;;;;2.58;1.40;;;27.90;99.90;;;;;;5075492;28;20677;-79
2022/08/02 10:59:26;;;;;;;1.10;1.00;;;28.00;99.90;;;;;;5075726;28;20229;-79
2022/08/02 11:01:59;;;;;;;1.00;0.90;;;28.30;99.90;;;;;;5075771;28;20267;-79
2022/08/02 11:04:28;;;;;;;1.27;1.02;;;28.90;99.90;;;;;;5075652;28;20206;-79
2022/08/02 11:07:08;;;;;;;1.42;1.33;;;29.60;99.90;;;;;;5075551;28;20205;-79
2022/08/02 11:09:36;;;;;;;1.45;1.08;;;30.40;97.10;;;;;;5074580;28;20248;-79
2022/08/02 11:12:06;;;;;;;1.73;1.08;;;31.00;97.90;;;;;;5075522;28;20206;-80
2022/08/02 11:14:35;;;;;;;0.90;0.90;;;31.20;96.90;;;;;;5075518;28;20182;-79
2022/08/02 11:17:10;;;;;;;1.73;0.90;;;31.40;94.70;;;;;;5075161;28;20200;-80
2022/08/02 11:20:14;;;;;;;1.17;0.90;;;31.20;93.00;;;;;;5075340;28;20229;-79
2022/08/02 11:22:42;;;;;;;1.05;1.05;;;30.40;93.80;;;;;;5075359;28;20619;-79
2022/08/02 11:25:31;;;;;;;0.85;0.85;;;29.80;94.80;;;;;;5075265;28;20208;-80
2022/08/02 11:28:09;;;;;;;1.02;0.80;;;29.30;95.20;;;;;;5075247;28;20198;-79
2022/08/02 11:30:37;;;;;;;1.27;1.10;;;29.00;95.50;;;;;;5075986;28;20230;-79
2022/08/02 11:33:04;;;;;;;0.80;0.80;;;28.70;95.30;;;;;;5074912;28;20221;-79
2022/08/02 11:35:33;;;;;;;0.73;0.73;;;28.50;96.50;;;;;;5075083;28;20256;-79
2022/08/02 11:38:14;;;;;;;0.98;0.98;;;28.40;95.40;;;;;;5075049;28;20205;-79
2022/08/02 11:40:41;;;;;;;0.85;0.77;;;28.30;96.20;;;;;;5074716;28;20291;-79
2022/08/02 11:43:21;;;;;;;0.98;0.90;;;28.10;97.20;;;;;;5074670;28;20721;-79
2022/08/02 11:45:48;;;;;;;1.25;1.02;;;28.10;96.80;;;;;;5074832;28;20217;-78
2022/08/02 11:48:22;;;;;;;0.88;0.80;;;28.00;96.50;;;;;;5074796;28;20199;-79
2022/08/02 11:51:11;;;;;;;0.85;0.85;;;28.00;97.60;;;;;;5074429;28;20776;-79
2022/08/02 11:53:47;;;;;;;0.70;0.70;;;27.90;96.50;;;;;;5074775;28;20182;-79
2022/08/02 11:56:15;;;;;;;1.63;1.13;;;27.80;96.60;;;;;;5074655;28;20201;-78
2022/08/02 11:59:00;;;;;;;0.80;0.73;;;27.60;97.10;;;;;;5074277;28;20674;-79
2022/08/02 12:01:27;;;;;;;1.10;1.10;;;27.40;97.10;;;;;;5074587;28;20192;-78
2022/08/02 12:03:57;;;;;;;1.00;0.80;;;27.40;97.20;;;;;;5074503;28;20213;-78
2022/08/02 12:06:24;;;;;;;1.45;1.35;;;27.40;97.20;;;;;;5074348;28;20283;-79
2022/08/02 12:08:51;;;;;;;1.38;1.27;;;27.30;97.40;;;;;;5074370;28;20213;-79
2022/08/02 12:11:19;;;;;;;1.10;1.00;;;27.30;98.40;;;;;;5073998;28;20218;-79
2022/08/02 12:13:47;;;;;;;1.20;1.00;;;27.30;98.80;;;;;;5074302;28;20209;-79
2022/08/02 12:21:43;;;;;;;0.90;0.90;;;26.80;99.10;;;;;;5074193;28;20227;-79
2022/08/02 12:24:10;;;;;;;1.90;1.23;;;26.70;99.20;;;;;;5074066;28;20213;-79
2022/08/02 12:26:44;;;;;;;0.88;0.88;;;26.70;99.70;;;;;;5073974;28;20222;-79
2022/08/02 12:29:12;;;;;;;1.88;1.67;;;26.70;99.90;;;;;;5073935;28;20202;-79
2022/08/02 12:31:41;;;;;;;1.70;1.60;;;26.50;99.90;;;;;;5073998;28;20202;-79
2022/08/02 12:34:19;;;;;;;0.90;0.90;;;26.30;99.90;;;;;;5073811;28;20211;-79
2022/08/02 12:36:59;;;;;;;0.90;0.80;;;26.30;99.90;;;;;;5073947;28;20185;-79
2022/08/02 12:39:38;;;;;;;1.75;0.80;;;26.20;99.90;;;;;;5073578;28;20229;-79
2022/08/02 12:42:06;;;;;;;0.93;0.70;;;26.20;99.90;;;;;;5073290;28;20233;-79
2022/08/02 12:44:36;;;;;;;1.00;0.85;;;26.20;99.90;;;;;;5074463;28;20567;-79
2022/08/02 12:47:05;;;;;;;0.90;0.90;;;26.20;99.90;;;;;;5073405;28;20194;-79
2022/08/02 12:49:31;;;;;;;1.30;1.20;;;26.40;99.50;;;;;;5073617;28;20218;-79
2022/08/02 12:51:58;;;;;;;1.08;0.98;;;26.40;99.40;;;;;;5073678;28;20201;-79
2022/08/02 12:54:27;;;;;;;0.98;0.98;;;26.40;99.70;;;;;;5073673;28;20576;-78
2022/08/02 12:56:53;;;;;;;1.08;0.98;;;26.50;99.50;;;;;;5073271;28;20576;-79
2022/08/02 12:59:38;;;;;;;1.00;1.00;;;26.60;99.40;;;;;;5073531;28;20230;-79
2022/08/02 13:02:07;;;;;;;1.05;0.88;;;26.70;99.60;;;;;;5073234;28;20736;-78
2022/08/02 13:04:34;;;;;;;0.77;0.77;;;26.70;99.20;;;;;;5073211;28;20691;-78